Airport details for: EIDW (Ireland)

Metar

EIDW 270830Z 23015KT 210V270 9999 -RA FEW016 SCT020 BKN100 13/10 Q1001 NOSIG

General details

ICAO: EIDW
IATA: DUB
Name (city): Dublin Intl
Major:
Country: Ireland
vACC: vACC Ireland
Description:
Scenery links:
FS9 scenery:
FSX/P3D scenery:
XP scenery:
Elevation: 242 ft.
Transition altitude: 5000 ft.
MSA: 8600 ft.
Latitude: 53.421389
Longitude: -6.27
EIDW Charts
EIDW Notams
EIDW Online stations

Runways

Number Course Length Elevation Lat Lon ILS ILS freq ILS FAC GP
10 99° 8652ft / 2637 m 242ft 53.422431 -6.290075 108.9 99° 3.0°
16 161° 6798ft / 2072 m 217ft 53.436989 -6.261978 111.5 161° 3.0°
28 279° 8652ft / 2637 m 202ft 53.420261 -6.250578 111.35 279° 3.0°
34 341° 6798ft / 2072 m 202ft 53.419906 -6.249594 - - 3.0°